createdAt,value
2017-10-13T00:00:57.473Z,97.20
2017-10-13T00:03:26.803Z,97.20
2017-10-13T00:05:56.222Z,97.00
2017-10-13T00:08:25.494Z,97.30
2017-10-13T00:10:54.765Z,97.50
2017-10-13T00:13:24.041Z,97.60
2017-10-13T00:15:54.092Z,98.00
2017-10-13T00:18:23.348Z,98.00
2017-10-13T00:20:52.787Z,98.00
2017-10-13T00:23:22.805Z,97.80
2017-10-13T00:25:52.295Z,97.80
2017-10-13T00:28:21.613Z,97.80
2017-10-13T00:30:50.879Z,97.70
2017-10-13T00:33:20.155Z,97.90
2017-10-13T00:35:49.507Z,97.90
2017-10-13T00:38:18.850Z,98.00
2017-10-13T00:40:48.206Z,97.80
2017-10-13T00:43:17.498Z,97.70
2017-10-13T00:45:47.569Z,98.00
2017-10-13T00:48:16.832Z,98.00
2017-10-13T00:50:46.082Z,98.10
2017-10-13T00:53:15.384Z,97.90
2017-10-13T00:55:44.644Z,97.90
2017-10-13T00:58:13.910Z,97.90
2017-10-13T01:00:43.162Z,97.80
2017-10-13T01:03:12.443Z,97.70
2017-10-13T01:05:41.695Z,97.70
2017-10-13T01:08:10.948Z,97.50
2017-10-13T01:10:40.228Z,97.40
2017-10-13T01:13:09.547Z,97.50
2017-10-13T01:15:38.829Z,97.40
2017-10-13T01:18:08.132Z,97.50
2017-10-13T01:20:38.157Z,97.60
2017-10-13T01:23:08.137Z,97.30
2017-10-13T01:25:37.480Z,97.30
2017-10-13T01:28:07.590Z,97.30
2017-10-13T01:30:37.625Z,97.50
2017-10-13T01:33:06.880Z,97.20
2017-10-13T01:35:36.174Z,97.30
2017-10-13T01:38:05.438Z,97.30
2017-10-13T01:40:34.723Z,97.40
2017-10-13T01:43:03.982Z,97.40
2017-10-13T01:45:33.246Z,97.30
2017-10-13T01:48:02.502Z,97.60
2017-10-13T01:50:32.510Z,97.50
2017-10-13T01:53:01.798Z,97.60
2017-10-13T01:55:31.368Z,97.70
2017-10-13T01:58:01.384Z,97.40
2017-10-13T02:00:30.643Z,97.40
2017-10-13T02:03:00.114Z,97.30
2017-10-13T02:05:29.379Z,97.40
2017-10-13T02:07:58.724Z,97.40
2017-10-13T02:10:28.003Z,97.50
2017-10-13T02:12:57.268Z,97.50
2017-10-13T02:15:27.322Z,97.60
2017-10-13T02:17:56.577Z,97.60
2017-10-13T02:20:25.825Z,97.90
2017-10-13T02:22:55.297Z,97.70
2017-10-13T02:25:25.318Z,98.30
2017-10-13T02:27:54.602Z,98.30
2017-10-13T02:30:25.373Z,98.30
2017-10-13T02:32:54.980Z,98.30
2017-10-13T02:35:24.210Z,98.30
2017-10-13T02:37:54.242Z,98.40
2017-10-13T02:40:23.518Z,98.60
2017-10-13T02:42:52.774Z,98.40
2017-10-13T02:45:23.120Z,98.60
2017-10-13T02:47:53.140Z,98.50
2017-10-13T02:50:22.440Z,98.30
2017-10-13T02:52:51.696Z,98.10
2017-10-13T02:55:20.978Z,98.30
2017-10-13T02:57:50.326Z,98.30
2017-10-13T03:00:19.621Z,98.50
2017-10-13T03:02:48.871Z,98.50
2017-10-13T03:05:18.923Z,98.60
2017-10-13T03:07:48.279Z,98.70
2017-10-13T03:10:17.542Z,98.60
2017-10-13T03:12:47.034Z,98.40
2017-10-13T03:15:16.350Z,98.30
2017-10-13T03:17:46.003Z,98.30
2017-10-13T03:20:15.222Z,98.70
2017-10-13T03:22:44.497Z,98.60
2017-10-13T03:25:14.058Z,98.70
2017-10-13T03:27:43.402Z,98.80
2017-10-13T03:30:12.663Z,99.10
2017-10-13T03:32:41.943Z,98.80
2017-10-13T03:35:11.182Z,98.80
2017-10-13T03:37:41.240Z,98.90
2017-10-13T03:40:10.610Z,98.90
2017-10-13T03:42:39.874Z,99.00
2017-10-13T03:45:09.145Z,99.10
2017-10-13T03:47:38.403Z,99.00
2017-10-13T03:50:07.669Z,98.80
2017-10-13T03:52:37.109Z,98.70
2017-10-13T03:55:07.142Z,98.70
2017-10-13T03:57:37.298Z,98.70
2017-10-13T04:00:06.569Z,98.70
2017-10-13T04:02:36.696Z,99.10
2017-10-13T04:05:05.942Z,98.90
2017-10-13T04:07:35.194Z,99.20
2017-10-13T04:10:04.467Z,99.40
2017-10-13T04:12:33.730Z,99.40
2017-10-13T04:15:03.007Z,99.30
2017-10-13T04:17:32.260Z,99.20
2017-10-13T04:20:01.551Z,99.40
2017-10-13T04:22:30.983Z,99.40
2017-10-13T04:25:01.043Z,99.30
2017-10-13T04:27:30.298Z,99.30
2017-10-13T04:29:59.731Z,99.50
2017-10-13T04:32:28.998Z,99.60
2017-10-13T04:34:58.307Z,99.40
2017-10-13T04:37:28.367Z,99.40
2017-10-13T04:39:57.728Z,99.40
2017-10-13T04:42:26.971Z,99.60
2017-10-13T04:44:56.257Z,99.50
2017-10-13T04:47:25.555Z,99.40
2017-10-13T04:49:55.479Z,99.40
2017-10-13T04:52:24.769Z,99.30
2017-10-13T04:54:54.066Z,99.30
2017-10-13T04:57:23.463Z,99.90
2017-10-13T04:59:53.510Z,99.90
2017-10-13T05:02:22.878Z,99.90
2017-10-13T05:04:52.950Z,99.90
2017-10-13T05:07:22.223Z,99.90
2017-10-13T05:09:51.463Z,99.90
2017-10-13T05:12:20.712Z,99.90
2017-10-13T05:14:50.746Z,99.90
2017-10-13T05:17:19.990Z,99.90
2017-10-13T05:19:49.258Z,99.90
2017-10-13T05:22:18.558Z,99.90
2017-10-13T05:24:47.826Z,99.90
2017-10-13T05:27:17.846Z,99.90
2017-10-13T05:29:47.131Z,99.90
2017-10-13T05:32:16.545Z,99.90
2017-10-13T05:34:46.558Z,99.90
2017-10-13T05:37:15.866Z,99.90
2017-10-13T05:39:45.102Z,99.90
2017-10-13T05:42:14.368Z,99.90
2017-10-13T05:44:44.410Z,99.90
2017-10-13T05:47:13.685Z,99.90
2017-10-13T05:49:42.950Z,99.90
2017-10-13T05:52:12.200Z,99.90
2017-10-13T05:54:42.239Z,99.90
2017-10-13T05:57:11.486Z,99.90
2017-10-13T05:59:40.742Z,99.90
2017-10-13T06:02:10.048Z,99.90
2017-10-13T06:04:39.307Z,99.90
2017-10-13T06:07:09.326Z,99.90
2017-10-13T06:09:38.577Z,99.90
2017-10-13T06:12:07.858Z,99.90
2017-10-13T06:14:37.171Z,99.80
2017-10-13T06:17:06.451Z,99.60
2017-10-13T06:19:35.966Z,99.70
2017-10-13T06:22:05.222Z,99.60
2017-10-13T06:24:34.483Z,99.90
2017-10-13T06:27:03.747Z,99.80
2017-10-13T06:29:33.015Z,99.60
2017-10-13T06:32:02.271Z,99.80
2017-10-13T06:34:31.554Z,99.80
2017-10-13T06:37:02.511Z,99.00
2017-10-13T06:39:31.771Z,99.00
2017-10-13T06:42:01.702Z,98.90
2017-10-13T06:44:31.076Z,98.70
2017-10-13T06:47:01.126Z,98.40
2017-10-13T06:49:31.183Z,99.00
2017-10-13T06:52:00.554Z,99.00
2017-10-13T06:54:30.578Z,99.10
2017-10-13T06:56:59.851Z,99.10
2017-10-13T06:59:29.262Z,99.30
2017-10-13T07:01:59.288Z,98.10
2017-10-13T07:04:28.588Z,98.10
2017-10-13T07:06:57.853Z,97.00
2017-10-13T07:09:27.107Z,97.10
2017-10-13T07:11:56.402Z,96.90
2017-10-13T07:14:25.696Z,96.80
2017-10-13T07:16:55.003Z,96.50
2017-10-13T07:19:25.094Z,93.30
2017-10-13T07:21:55.120Z,89.90
2017-10-13T07:24:24.420Z,89.40
2017-10-13T07:26:55.177Z,75.90
2017-10-13T07:29:24.471Z,75.70
2017-10-13T07:31:53.901Z,72.80
2017-10-13T07:34:23.184Z,70.60
2017-10-13T07:36:53.290Z,70.80
2017-10-13T07:39:23.373Z,71.50
2017-10-13T07:41:52.647Z,71.50
2017-10-13T07:44:21.916Z,74.30
2017-10-13T07:46:51.175Z,73.00
2017-10-13T07:49:20.473Z,73.00
2017-10-13T07:51:49.737Z,74.90
2017-10-13T07:54:19.009Z,76.00
2017-10-13T07:56:48.269Z,77.40
2017-10-13T07:59:17.535Z,77.60
2017-10-13T08:01:46.917Z,80.10
2017-10-13T08:04:16.372Z,81.60
2017-10-13T08:06:45.732Z,84.30
2017-10-13T08:09:15.290Z,85.50
2017-10-13T08:11:44.566Z,86.60
2017-10-13T08:14:13.830Z,87.00
2017-10-13T08:16:43.885Z,88.20
2017-10-13T08:19:13.255Z,88.20
2017-10-13T08:21:43.291Z,89.80
2017-10-13T08:24:12.688Z,89.80
2017-10-13T08:26:42.740Z,90.50
2017-10-13T08:29:12.010Z,90.50
2017-10-13T08:31:41.418Z,90.20
2017-10-13T08:34:11.466Z,90.40
2017-10-13T08:36:40.726Z,90.40
2017-10-13T08:39:10.004Z,90.30
2017-10-13T08:41:39.291Z,90.10
2017-10-13T08:44:08.569Z,90.90
2017-10-13T08:46:37.848Z,89.40
2017-10-13T08:49:07.163Z,89.80
2017-10-13T08:51:36.422Z,88.60
2017-10-13T08:54:06.440Z,89.00
2017-10-13T08:56:35.899Z,88.90
2017-10-13T08:59:05.204Z,87.50
2017-10-13T09:01:34.565Z,87.00
2017-10-13T09:04:03.891Z,85.90
2017-10-13T09:06:33.158Z,84.30
2017-10-13T09:09:02.417Z,82.70
2017-10-13T09:11:31.698Z,80.70
2017-10-13T09:14:00.975Z,75.80
2017-10-13T09:16:31.062Z,65.70
2017-10-13T09:19:00.339Z,65.50
2017-10-13T09:21:29.605Z,63.40
2017-10-13T09:23:58.910Z,61.80
2017-10-13T09:26:28.922Z,64.60
2017-10-13T09:28:58.178Z,64.60
2017-10-13T09:31:27.541Z,66.30
2017-10-13T09:33:56.826Z,69.90
2017-10-13T09:36:26.070Z,71.60
2017-10-13T09:38:55.343Z,73.00
2017-10-13T09:41:24.715Z,72.70
2017-10-13T09:43:54.750Z,73.60
2017-10-13T09:46:24.239Z,73.50
2017-10-13T09:48:53.508Z,75.80
2017-10-13T09:51:22.768Z,73.60
2017-10-13T09:53:52.279Z,72.80
2017-10-13T09:56:21.539Z,73.00
2017-10-13T09:58:51.678Z,68.70
2017-10-13T10:01:21.003Z,68.70
2017-10-13T10:03:51.018Z,63.30
2017-10-13T10:06:20.297Z,63.30
2017-10-13T10:08:49.699Z,57.70
2017-10-13T10:11:19.737Z,55.60
2017-10-13T10:13:49.485Z,55.50
2017-10-13T10:16:18.871Z,48.10
2017-10-13T10:18:48.204Z,46.90
2017-10-13T10:21:18.986Z,48.00
2017-10-13T10:23:48.256Z,48.00
2017-10-13T10:26:17.577Z,47.50
2017-10-13T10:28:46.985Z,47.60
2017-10-13T10:31:16.247Z,45.20
2017-10-13T10:33:45.527Z,44.40
2017-10-13T10:36:14.796Z,45.60
2017-10-13T10:38:44.042Z,47.70
2017-10-13T10:41:13.416Z,50.30
2017-10-13T10:43:42.662Z,52.50
2017-10-13T10:46:11.915Z,53.80
2017-10-13T10:48:41.194Z,56.10
2017-10-13T10:51:10.440Z,57.50
2017-10-13T10:53:39.786Z,57.90
2017-10-13T10:56:09.194Z,59.40
2017-10-13T10:58:39.213Z,63.00
2017-10-13T11:01:08.506Z,62.90
2017-10-13T11:03:38.531Z,65.50
2017-10-13T11:06:08.570Z,66.60
2017-10-13T11:08:37.833Z,66.60
2017-10-13T11:11:07.147Z,68.70
2017-10-13T11:13:37.184Z,70.80
2017-10-13T11:16:07.423Z,71.40
2017-10-13T11:18:36.683Z,71.30
2017-10-13T11:21:06.710Z,69.40
2017-10-13T11:23:36.518Z,69.40
2017-10-13T11:26:06.582Z,72.60
2017-10-13T11:28:35.854Z,72.50
2017-10-13T11:31:05.141Z,75.10
2017-10-13T11:33:34.623Z,74.50
2017-10-13T11:36:03.939Z,76.50
2017-10-13T11:38:33.188Z,73.30
2017-10-13T11:41:02.446Z,70.50
2017-10-13T11:43:32.505Z,72.30
2017-10-13T11:46:01.786Z,72.10
2017-10-13T11:48:31.029Z,73.40
2017-10-13T11:51:00.307Z,75.70
2017-10-13T11:53:30.470Z,76.50
2017-10-13T11:55:59.769Z,77.40
2017-10-13T11:58:29.019Z,78.10
2017-10-13T12:00:58.274Z,77.80
2017-10-13T12:03:28.322Z,78.60
2017-10-13T12:05:57.616Z,78.60
2017-10-13T12:08:27.022Z,78.20
2017-10-13T12:10:57.043Z,78.80
2017-10-13T12:13:26.434Z,78.70
2017-10-13T12:15:56.563Z,78.50
2017-10-13T12:18:26.578Z,79.00
2017-10-13T12:20:55.971Z,78.90
2017-10-13T12:23:25.999Z,83.20
2017-10-13T12:25:55.294Z,83.20
2017-10-13T12:28:24.707Z,85.00
2017-10-13T12:30:54.742Z,87.50
2017-10-13T12:33:23.989Z,87.50
2017-10-13T12:35:53.254Z,88.20
2017-10-13T12:38:22.525Z,88.20
2017-10-13T12:40:52.566Z,89.20
2017-10-13T12:43:21.837Z,89.10
2017-10-13T12:45:51.121Z,90.20
2017-10-13T12:48:20.375Z,87.80
2017-10-13T12:50:49.694Z,89.10
2017-10-13T12:53:18.968Z,86.80
2017-10-13T12:55:48.992Z,84.80
2017-10-13T12:58:18.390Z,84.80
2017-10-13T13:00:48.414Z,82.30
2017-10-13T13:03:17.696Z,82.30
2017-10-13T13:05:46.966Z,82.40
2017-10-13T13:08:16.226Z,83.80
2017-10-13T13:10:45.527Z,83.40
2017-10-13T13:13:14.959Z,84.50
2017-10-13T13:15:44.236Z,85.20
2017-10-13T13:18:13.713Z,85.50
2017-10-13T13:20:42.937Z,85.80
2017-10-13T13:23:12.232Z,86.10
2017-10-13T13:25:42.231Z,85.40
2017-10-13T13:28:11.534Z,85.30
2017-10-13T13:30:40.939Z,83.80
2017-10-13T13:33:10.453Z,83.70
2017-10-13T13:35:39.724Z,84.10
2017-10-13T13:38:08.983Z,82.00
2017-10-13T13:40:38.343Z,82.40
2017-10-13T13:43:08.627Z,81.20
2017-10-13T13:45:38.487Z,81.10
2017-10-13T13:48:07.783Z,81.30
2017-10-13T13:50:37.883Z,82.40
2017-10-13T13:53:07.301Z,81.20
2017-10-13T13:55:37.323Z,83.40
2017-10-13T13:58:06.599Z,82.80
2017-10-13T14:00:36.026Z,82.30
2017-10-13T14:03:06.092Z,82.60
2017-10-13T14:05:35.480Z,82.60
2017-10-13T14:08:05.736Z,85.00
2017-10-13T14:10:35.102Z,84.30
2017-10-13T14:13:04.354Z,83.70
2017-10-13T14:15:33.628Z,84.00
2017-10-13T14:18:02.895Z,85.30
2017-10-13T14:20:32.210Z,85.90
2017-10-13T14:23:01.658Z,86.40
2017-10-13T14:25:30.951Z,86.50
2017-10-13T14:28:00.246Z,86.70
2017-10-13T14:30:29.504Z,86.20
2017-10-13T14:32:58.810Z,85.90
2017-10-13T14:35:28.172Z,86.00
2017-10-13T14:37:57.590Z,86.10
2017-10-13T14:40:27.761Z,85.80
2017-10-13T14:42:57.054Z,86.40
2017-10-13T14:45:26.351Z,85.40
2017-10-13T14:47:56.360Z,85.60
2017-10-13T14:50:25.652Z,85.60
2017-10-13T14:52:54.938Z,85.80
2017-10-13T14:55:24.211Z,85.00
2017-10-13T14:57:53.482Z,84.80
2017-10-13T15:00:22.760Z,84.80
2017-10-13T15:02:52.032Z,85.50
2017-10-13T15:05:21.307Z,85.30
2017-10-13T15:07:50.640Z,85.20
2017-10-13T15:10:19.902Z,84.30
2017-10-13T15:12:49.179Z,84.10
2017-10-13T15:15:18.433Z,84.00
2017-10-13T15:17:49.219Z,84.40
2017-10-13T15:20:18.490Z,84.30
2017-10-13T15:22:47.862Z,84.60
2017-10-13T15:25:22.615Z,84.90
2017-10-13T15:27:57.330Z,84.90
2017-10-13T15:30:32.220Z,85.50
2017-10-13T15:33:07.021Z,87.20
2017-10-13T15:35:42.482Z,88.30
2017-10-13T15:38:17.161Z,88.30
2017-10-13T15:40:51.902Z,88.30
2017-10-13T15:43:27.268Z,88.20
2017-10-13T15:46:02.920Z,90.40
2017-10-13T15:48:32.212Z,90.40
2017-10-13T15:54:03.344Z,90.60
2017-10-13T15:56:32.622Z,90.60
2017-10-13T15:59:02.096Z,90.20
2017-10-13T16:01:31.394Z,90.50
2017-10-13T16:04:00.714Z,90.40
2017-10-13T16:06:30.181Z,90.80
2017-10-13T16:09:00.315Z,92.20
2017-10-13T16:11:29.708Z,92.20
2017-10-13T16:13:58.997Z,92.30
2017-10-13T16:16:28.313Z,92.50
2017-10-13T16:18:57.611Z,92.80
2017-10-13T16:21:26.942Z,93.20
2017-10-13T16:23:56.228Z,93.50
2017-10-13T16:26:25.528Z,93.70
2017-10-13T16:28:54.819Z,94.00
2017-10-13T16:31:24.091Z,94.00
2017-10-13T16:33:53.387Z,94.10
2017-10-13T16:36:22.848Z,94.50
2017-10-13T16:38:52.878Z,95.00
2017-10-13T16:41:22.318Z,95.00
2017-10-13T16:43:51.592Z,95.10
2017-10-13T16:46:20.874Z,95.20
2017-10-13T16:48:50.173Z,95.20
2017-10-13T16:51:19.450Z,95.20
2017-10-13T16:53:48.699Z,95.20
2017-10-13T16:56:17.975Z,95.30
2017-10-13T16:58:47.935Z,95.50
2017-10-13T17:01:17.228Z,95.60
2017-10-13T17:03:46.496Z,95.60
2017-10-13T17:06:15.837Z,95.60
2017-10-13T17:08:45.217Z,96.00
2017-10-13T17:11:14.548Z,96.40
2017-10-13T17:13:43.915Z,96.40
2017-10-13T17:16:13.192Z,96.40
2017-10-13T17:18:42.644Z,96.30
2017-10-13T17:21:11.899Z,96.30
2017-10-13T17:23:41.960Z,96.40
2017-10-13T17:26:11.255Z,96.40
2017-10-13T17:28:40.511Z,96.60
2017-10-13T17:31:09.821Z,96.80
2017-10-13T17:33:39.110Z,97.00
2017-10-13T17:36:08.407Z,97.00
2017-10-13T17:38:38.428Z,97.20
2017-10-13T17:41:07.687Z,97.20
2017-10-13T17:43:37.173Z,97.30
2017-10-13T17:46:07.202Z,97.50
2017-10-13T17:48:36.487Z,97.50
2017-10-13T17:51:05.747Z,97.50
2017-10-13T17:53:36.544Z,97.60
2017-10-13T17:56:05.803Z,97.60
2017-10-13T17:58:35.089Z,97.60
2017-10-13T18:01:05.905Z,97.70
2017-10-13T18:03:35.190Z,97.70
2017-10-13T18:06:04.488Z,97.50
2017-10-13T18:08:33.771Z,97.60
2017-10-13T18:11:03.032Z,97.70
2017-10-13T18:13:32.327Z,97.60
2017-10-13T18:16:01.658Z,97.40
2017-10-13T18:18:30.979Z,97.50
2017-10-13T18:21:00.271Z,97.50
2017-10-13T18:23:29.607Z,97.50
2017-10-13T18:25:58.899Z,97.50
2017-10-13T18:28:28.179Z,97.60
2017-10-13T18:30:57.523Z,97.50
2017-10-13T18:33:26.794Z,97.60
2017-10-13T18:35:56.123Z,97.50
2017-10-13T18:38:25.580Z,97.60
2017-10-13T18:40:54.835Z,97.90
2017-10-13T18:43:24.128Z,98.00
2017-10-13T18:45:53.395Z,98.20
2017-10-13T18:48:22.672Z,98.50
2017-10-13T18:50:51.975Z,98.20
2017-10-13T18:53:21.392Z,98.30
2017-10-13T18:55:50.701Z,98.30
2017-10-13T18:58:20.175Z,98.50
2017-10-13T19:00:49.591Z,98.50
2017-10-13T19:03:19.647Z,98.80
2017-10-13T19:05:48.927Z,98.80
2017-10-13T19:08:18.214Z,98.90
2017-10-13T19:10:47.481Z,99.10
2017-10-13T19:13:17.615Z,98.90
2017-10-13T19:15:46.895Z,98.90
2017-10-13T19:18:16.149Z,98.90
2017-10-13T19:20:45.730Z,98.80
2017-10-13T19:23:15.016Z,98.70
2017-10-13T19:25:44.288Z,98.60
2017-10-13T19:28:13.603Z,98.50
2017-10-13T19:30:42.881Z,98.50
2017-10-13T19:33:12.185Z,98.40
2017-10-13T19:35:41.453Z,98.20
2017-10-13T19:38:10.715Z,98.10
2017-10-13T19:40:41.502Z,98.00
2017-10-13T19:43:10.768Z,98.00
2017-10-13T19:45:40.103Z,97.90
2017-10-13T19:48:09.397Z,97.80
2017-10-13T19:50:39.428Z,97.80
2017-10-13T19:53:08.816Z,97.80
2017-10-13T19:55:38.094Z,97.70
2017-10-13T19:58:07.438Z,97.70
2017-10-13T20:00:36.819Z,97.70
2017-10-13T20:03:06.871Z,97.70
2017-10-13T20:05:37.147Z,97.70
2017-10-13T20:08:06.482Z,97.70
2017-10-13T20:10:35.777Z,97.70
2017-10-13T20:13:05.076Z,97.70
2017-10-13T20:15:34.366Z,97.70
2017-10-13T20:18:03.619Z,97.70
2017-10-13T20:20:32.955Z,97.80
2017-10-13T20:23:03.710Z,97.90
2017-10-13T20:25:32.996Z,97.90
2017-10-13T20:28:02.302Z,97.70
2017-10-13T20:30:31.575Z,97.60
2017-10-13T20:33:01.060Z,97.70
2017-10-13T20:35:30.458Z,97.60
2017-10-13T20:38:00.675Z,97.50
2017-10-13T20:40:29.945Z,97.50
2017-10-13T20:42:59.967Z,97.30
2017-10-13T20:45:29.248Z,97.30
2017-10-13T20:47:59.264Z,97.20
2017-10-13T20:50:28.550Z,97.20
2017-10-13T20:52:57.823Z,97.20
2017-10-13T20:55:27.080Z,97.30
2017-10-13T20:57:56.368Z,97.30
2017-10-13T21:00:25.619Z,97.40
2017-10-13T21:02:54.983Z,97.50
2017-10-13T21:05:24.279Z,97.40
2017-10-13T21:07:54.308Z,97.60
2017-10-13T21:10:23.574Z,97.50
2017-10-13T21:12:52.895Z,97.60
2017-10-13T21:15:22.324Z,97.60
2017-10-13T21:17:52.446Z,97.70
2017-10-13T21:20:22.522Z,97.60
2017-10-13T21:22:52.603Z,97.60
2017-10-13T21:25:21.852Z,97.60
2017-10-13T21:27:52.618Z,97.50
2017-10-13T21:30:21.885Z,97.40
2017-10-13T21:32:51.155Z,97.40
2017-10-13T21:35:21.223Z,97.40
2017-10-13T21:37:51.261Z,97.50
2017-10-13T21:40:20.531Z,97.50
2017-10-13T21:42:49.937Z,97.60
2017-10-13T21:45:19.996Z,97.60
2017-10-13T21:47:49.363Z,97.50
2017-10-13T21:50:19.394Z,97.50
2017-10-13T21:52:48.662Z,97.50
2017-10-13T21:55:17.950Z,97.50
2017-10-13T21:57:47.226Z,97.50
2017-10-13T22:00:16.597Z,97.60
2017-10-13T22:02:45.994Z,97.50
2017-10-13T22:05:16.063Z,97.60
2017-10-13T22:07:45.390Z,97.60
2017-10-13T22:10:14.848Z,97.70
2017-10-13T22:12:44.108Z,97.50
2017-10-13T22:15:13.383Z,97.40
2017-10-13T22:17:42.641Z,97.40
2017-10-13T22:20:12.675Z,97.10
2017-10-13T22:22:42.054Z,97.10
2017-10-13T22:25:12.094Z,97.50
2017-10-13T22:27:41.381Z,97.50
2017-10-13T22:30:10.652Z,97.70
2017-10-13T22:32:41.527Z,97.60
2017-10-13T22:35:10.805Z,97.60
2017-10-13T22:37:40.057Z,97.80
2017-10-13T22:40:09.366Z,97.70
2017-10-13T22:42:38.850Z,97.80
2017-10-13T22:45:08.073Z,97.70
2017-10-13T22:47:37.377Z,98.00
2017-10-13T22:50:06.646Z,98.00
2017-10-13T22:52:35.904Z,98.10
2017-10-13T22:55:05.178Z,97.90
2017-10-13T22:57:34.437Z,98.40
2017-10-13T23:00:03.727Z,98.00
2017-10-13T23:02:33.435Z,98.40
2017-10-13T23:05:02.710Z,98.40
2017-10-13T23:07:31.982Z,98.60
2017-10-13T23:10:01.242Z,98.60
2017-10-13T23:12:30.661Z,98.60
2017-10-13T23:15:00.063Z,98.60
2017-10-13T23:17:29.462Z,98.50
2017-10-13T23:19:58.838Z,98.60
2017-10-13T23:22:28.132Z,98.50
2017-10-13T23:24:57.391Z,98.50
2017-10-13T23:27:26.690Z,98.40
2017-10-13T23:29:55.971Z,98.20
2017-10-13T23:32:25.233Z,98.20
2017-10-13T23:34:54.514Z,98.10
2017-10-13T23:37:23.770Z,98.00
2017-10-13T23:39:53.815Z,97.90
2017-10-13T23:42:23.082Z,97.90
2017-10-13T23:44:52.443Z,97.90
2017-10-13T23:47:21.730Z,97.90
2017-10-13T23:49:51.003Z,97.80
2017-10-13T23:52:20.351Z,97.80
2017-10-13T23:54:49.689Z,98.00
2017-10-13T23:57:19.739Z,98.40
2017-10-13T23:59:48.991Z,98.40
